createdAt,value
2018-10-09T00:02:10.726Z,4.23
2018-10-09T00:04:37.920Z,4.07
2018-10-09T00:07:05.143Z,4.60
2018-10-09T00:09:32.369Z,4.40
2018-10-09T00:11:59.570Z,4.50
2018-10-09T00:14:26.824Z,4.60
2018-10-09T00:16:54.032Z,4.17
2018-10-09T00:19:21.261Z,4.83
2018-10-09T00:21:48.488Z,3.97
2018-10-09T00:24:15.714Z,4.03
2018-10-09T00:26:42.962Z,4.13
2018-10-09T00:29:10.305Z,4.40
2018-10-09T00:31:37.562Z,5.50
2018-10-09T00:34:04.732Z,4.80
2018-10-09T00:36:31.987Z,4.03
2018-10-09T00:38:59.227Z,4.30
2018-10-09T00:41:26.514Z,4.37
2018-10-09T00:43:53.712Z,4.27
2018-10-09T00:46:20.985Z,4.43
2018-10-09T00:48:48.232Z,4.30
2018-10-09T00:51:15.501Z,4.60
2018-10-09T00:53:42.784Z,4.60
2018-10-09T00:56:10.176Z,4.50
2018-10-09T00:58:37.412Z,5.00
2018-10-09T01:01:04.673Z,3.93
2018-10-09T01:03:31.940Z,5.40
2018-10-09T01:05:59.663Z,4.70
2018-10-09T01:08:26.913Z,4.43
2018-10-09T01:10:54.128Z,4.50
2018-10-09T01:13:21.341Z,5.60
2018-10-09T01:15:48.981Z,4.67
2018-10-09T01:18:16.269Z,4.93
2018-10-09T01:20:43.515Z,4.63
2018-10-09T01:23:10.736Z,4.00
2018-10-09T01:25:38.569Z,4.97
2018-10-09T01:28:05.876Z,4.90
2018-10-09T01:30:33.685Z,4.80
2018-10-09T01:33:01.553Z,5.13
2018-10-09T01:35:28.774Z,4.00
2018-10-09T01:37:56.072Z,4.60
2018-10-09T01:40:23.373Z,4.77
2018-10-09T01:42:51.527Z,4.23
2018-10-09T01:45:19.012Z,4.60
2018-10-09T01:47:46.227Z,4.30
2018-10-09T01:50:13.447Z,4.70
2018-10-09T01:52:40.624Z,4.23
2018-10-09T01:55:08.021Z,4.80
2018-10-09T01:57:35.403Z,4.83
2018-10-09T02:00:04.141Z,4.10
2018-10-09T02:02:31.466Z,4.00
2018-10-09T02:04:58.724Z,4.30
2018-10-09T02:07:25.865Z,4.30
2018-10-09T02:09:53.097Z,5.10
2018-10-09T02:12:20.352Z,4.40
2018-10-09T02:14:47.578Z,4.93
2018-10-09T02:17:14.860Z,5.00
2018-10-09T02:19:42.069Z,4.77
2018-10-09T02:22:09.232Z,3.67
2018-10-09T02:24:36.463Z,3.73
2018-10-09T02:27:03.852Z,4.17
2018-10-09T02:29:31.041Z,4.90
2018-10-09T02:31:58.253Z,4.50
2018-10-09T02:34:25.410Z,4.63
2018-10-09T02:36:52.579Z,4.70
2018-10-09T02:39:20.284Z,4.80
2018-10-09T02:41:47.508Z,4.57
2018-10-09T02:44:14.776Z,4.40
2018-10-09T02:46:41.928Z,4.10
2018-10-09T02:49:09.180Z,4.13
2018-10-09T02:51:36.414Z,4.50
2018-10-09T02:54:04.264Z,4.00
2018-10-09T02:56:31.588Z,5.03
2018-10-09T02:58:58.771Z,4.50
2018-10-09T03:01:26.014Z,3.70
2018-10-09T03:03:53.267Z,4.17
2018-10-09T03:06:20.501Z,4.13
2018-10-09T03:08:47.731Z,4.50
2018-10-09T03:11:14.990Z,4.60
2018-10-09T03:13:42.176Z,4.30
2018-10-09T03:16:09.468Z,4.67
2018-10-09T03:18:36.713Z,4.40
2018-10-09T03:21:03.872Z,4.50
2018-10-09T03:23:31.124Z,3.87
2018-10-09T03:25:58.349Z,3.63
2018-10-09T03:28:25.603Z,4.20
2018-10-09T03:30:52.856Z,3.87
2018-10-09T03:33:20.088Z,3.97
2018-10-09T03:35:47.308Z,4.03
2018-10-09T03:38:14.543Z,4.10
2018-10-09T03:40:41.769Z,4.00
2018-10-09T03:43:09.005Z,4.73
2018-10-09T03:45:36.245Z,3.97
2018-10-09T03:48:03.412Z,3.70
2018-10-09T03:50:30.661Z,4.50
2018-10-09T03:52:57.871Z,4.03
2018-10-09T03:55:25.229Z,4.90
2018-10-09T03:57:52.487Z,4.37
2018-10-09T04:00:19.804Z,4.80
2018-10-09T04:02:47.036Z,4.47
2018-10-09T04:05:14.345Z,4.63
2018-10-09T04:07:41.539Z,4.30
2018-10-09T04:10:08.764Z,6.00
2018-10-09T04:12:35.987Z,4.60
2018-10-09T04:15:03.767Z,4.83
2018-10-09T04:17:30.946Z,4.77
2018-10-09T04:19:58.180Z,4.43
2018-10-09T04:22:25.414Z,5.00
2018-10-09T04:24:52.584Z,4.67
2018-10-09T04:27:19.991Z,4.60
2018-10-09T04:29:47.714Z,4.50
2018-10-09T04:32:14.968Z,4.53
2018-10-09T04:34:42.180Z,5.07
2018-10-09T04:37:09.508Z,5.00
2018-10-09T04:39:36.736Z,4.93
2018-10-09T04:42:04.008Z,4.40
2018-10-09T04:44:31.392Z,4.60
2018-10-09T04:46:58.607Z,4.53
2018-10-09T04:49:25.843Z,5.00
2018-10-09T04:51:53.724Z,4.87
2018-10-09T04:54:21.011Z,5.10
2018-10-09T04:56:48.264Z,5.50
2018-10-09T04:59:16.030Z,5.30
2018-10-09T05:01:43.315Z,4.70
2018-10-09T05:04:10.537Z,4.10
2018-10-09T05:06:37.894Z,4.63
2018-10-09T05:09:07.653Z,4.60
2018-10-09T05:11:34.888Z,5.87
2018-10-09T05:14:02.143Z,4.80
2018-10-09T05:16:29.368Z,4.40
2018-10-09T05:18:56.602Z,5.27
2018-10-09T05:21:23.800Z,5.27
2018-10-09T05:23:51.024Z,5.50
2018-10-09T05:26:18.311Z,4.40
2018-10-09T05:28:45.528Z,5.00
2018-10-09T05:31:12.769Z,4.93
2018-10-09T05:33:39.921Z,4.60
2018-10-09T05:36:07.118Z,4.40
2018-10-09T05:38:34.390Z,4.50
2018-10-09T05:41:01.566Z,4.90
2018-10-09T05:43:28.808Z,4.63
2018-10-09T05:45:55.980Z,4.93
2018-10-09T05:48:23.250Z,5.10
2018-10-09T05:50:50.491Z,4.97
2018-10-09T05:53:17.693Z,5.57
2018-10-09T05:55:44.909Z,5.33
2018-10-09T05:58:12.211Z,6.33
2018-10-09T06:00:39.400Z,5.80
2018-10-09T06:03:06.679Z,4.83
2018-10-09T06:05:33.930Z,5.20
2018-10-09T06:08:01.192Z,5.53
2018-10-09T06:10:28.475Z,5.80
2018-10-09T06:12:55.656Z,5.27
2018-10-09T06:15:22.909Z,6.13
2018-10-09T06:17:50.049Z,5.23
2018-10-09T06:20:17.324Z,5.90
2018-10-09T06:22:44.594Z,5.20
2018-10-09T06:25:11.888Z,4.67
2018-10-09T06:27:39.268Z,5.57
2018-10-09T06:30:06.508Z,6.17
2018-10-09T06:32:34.281Z,5.93
2018-10-09T06:35:01.846Z,6.10
2018-10-09T06:37:29.056Z,5.60
2018-10-09T06:39:56.308Z,5.70
2018-10-09T06:42:23.587Z,5.57
2018-10-09T06:44:50.780Z,6.53
2018-10-09T06:47:17.989Z,5.30
2018-10-09T06:49:45.222Z,5.80
2018-10-09T06:52:12.436Z,5.47
2018-10-09T06:54:39.799Z,6.00
2018-10-09T06:57:07.021Z,6.40
2018-10-09T06:59:34.238Z,9.70
2018-10-09T07:02:01.441Z,6.20
2018-10-09T07:04:28.698Z,6.53
2018-10-09T07:06:55.931Z,7.10
2018-10-09T07:09:23.183Z,6.80
2018-10-09T07:11:50.421Z,7.47
2018-10-09T07:14:17.670Z,7.30
2018-10-09T07:16:44.886Z,8.53
2018-10-09T07:19:12.166Z,10.50
2018-10-09T07:21:39.458Z,8.90
2018-10-09T07:24:06.658Z,10.63
2018-10-09T07:26:33.937Z,12.00
2018-10-09T07:29:01.169Z,12.80
2018-10-09T07:31:28.385Z,13.00
2018-10-09T07:33:55.674Z,12.73
2018-10-09T07:36:22.875Z,11.50
2018-10-09T07:38:50.106Z,11.60
2018-10-09T07:41:17.393Z,10.37
2018-10-09T07:43:44.663Z,10.30
2018-10-09T07:46:11.988Z,11.53
2018-10-09T07:48:39.152Z,10.33
2018-10-09T07:51:06.665Z,12.03
2018-10-09T07:53:33.858Z,10.60
2018-10-09T07:56:01.126Z,11.30
2018-10-09T07:58:28.392Z,11.97
2018-10-09T08:00:55.589Z,10.77
2018-10-09T08:03:22.846Z,11.57
2018-10-09T08:05:50.074Z,11.00
2018-10-09T08:08:17.245Z,10.70
2018-10-09T08:10:44.523Z,10.90
2018-10-09T08:13:11.767Z,11.20
2018-10-09T08:15:38.964Z,11.47
2018-10-09T08:18:06.197Z,11.17
2018-10-09T08:20:33.427Z,11.13
2018-10-09T08:23:00.747Z,11.93
2018-10-09T08:25:27.871Z,10.77
2018-10-09T08:27:55.136Z,11.60
2018-10-09T08:30:22.361Z,11.30
2018-10-09T08:32:49.628Z,10.30
2018-10-09T08:35:16.793Z,10.50
2018-10-09T08:37:44.063Z,10.47
2018-10-09T08:40:11.370Z,10.67
2018-10-09T08:42:38.602Z,11.47
2018-10-09T08:45:06.137Z,11.03
2018-10-09T08:47:33.408Z,11.13
2018-10-09T08:50:00.673Z,11.50
2018-10-09T08:52:27.868Z,10.67
2018-10-09T08:54:55.072Z,11.00
2018-10-09T08:57:22.334Z,10.43
2018-10-09T08:59:50.529Z,11.50
2018-10-09T09:02:17.824Z,10.60
2018-10-09T09:04:45.089Z,12.17
2018-10-09T09:07:12.274Z,12.50
2018-10-09T09:09:39.610Z,10.47
2018-10-09T09:12:06.825Z,10.90
2018-10-09T09:14:34.101Z,11.63
2018-10-09T09:17:01.358Z,11.17
2018-10-09T09:19:28.579Z,10.07
2018-10-09T09:21:55.860Z,10.60
2018-10-09T09:24:23.093Z,11.27
2018-10-09T09:26:50.439Z,11.87
2018-10-09T09:29:17.647Z,12.23
2018-10-09T09:31:44.820Z,10.93
2018-10-09T09:34:12.002Z,12.20
2018-10-09T09:36:39.258Z,11.63
2018-10-09T09:39:07.396Z,10.70
2018-10-09T09:41:35.561Z,10.20
2018-10-09T09:44:03.586Z,10.70
2018-10-09T09:46:30.891Z,11.30
2018-10-09T09:48:58.141Z,12.17
2018-10-09T09:51:25.414Z,11.13
2018-10-09T09:53:52.584Z,10.80
2018-10-09T09:56:19.817Z,12.57
2018-10-09T09:58:47.200Z,10.53
2018-10-09T10:01:14.353Z,11.80
2018-10-09T10:03:41.746Z,11.17
2018-10-09T10:06:09.087Z,11.80
2018-10-09T10:08:36.475Z,11.93
2018-10-09T10:11:03.907Z,13.20
2018-10-09T10:13:31.105Z,11.30
2018-10-09T10:15:58.385Z,11.40
2018-10-09T10:18:26.073Z,10.53
2018-10-09T10:20:53.949Z,10.93
2018-10-09T10:23:21.230Z,12.10
2018-10-09T10:25:48.568Z,11.23
2018-10-09T10:28:16.168Z,12.33
2018-10-09T10:30:43.304Z,10.73
2018-10-09T10:33:10.483Z,11.77
2018-10-09T10:35:37.694Z,12.87
2018-10-09T10:38:04.905Z,12.70
2018-10-09T10:40:32.160Z,12.50
2018-10-09T10:42:59.452Z,11.63
2018-10-09T10:45:26.724Z,12.90
2018-10-09T10:47:54.109Z,12.07
2018-10-09T10:50:21.376Z,13.57
2018-10-09T10:52:48.629Z,12.47
2018-10-09T10:55:15.903Z,12.90
2018-10-09T10:57:43.154Z,11.70
2018-10-09T11:00:10.410Z,12.33
2018-10-09T11:02:37.665Z,12.10
2018-10-09T11:05:05.117Z,13.57
2018-10-09T11:07:32.688Z,14.00
2018-10-09T11:09:59.980Z,13.20
2018-10-09T11:12:27.288Z,13.23
2018-10-09T11:14:54.517Z,13.60
2018-10-09T11:17:21.761Z,13.70
2018-10-09T11:19:48.961Z,13.93
2018-10-09T11:22:16.205Z,13.50
2018-10-09T11:24:43.497Z,13.50
2018-10-09T11:27:10.805Z,13.00
2018-10-09T11:29:38.489Z,13.30
2018-10-09T11:32:06.168Z,12.90
2018-10-09T11:34:33.594Z,12.63
2018-10-09T11:37:00.919Z,12.77
2018-10-09T11:39:28.102Z,13.50
2018-10-09T11:41:55.386Z,13.27
2018-10-09T11:44:22.555Z,12.30
2018-10-09T11:46:49.818Z,13.30
2018-10-09T11:49:17.049Z,12.17
2018-10-09T11:51:44.283Z,14.47
2018-10-09T11:54:11.545Z,14.20
2018-10-09T11:56:38.845Z,13.50
2018-10-09T11:59:06.239Z,13.23
2018-10-09T12:01:33.436Z,12.67
2018-10-09T12:04:00.665Z,13.27
2018-10-09T12:06:28.517Z,13.47
2018-10-09T12:08:55.665Z,14.13
2018-10-09T12:11:22.929Z,13.33
2018-10-09T12:13:50.169Z,11.57
2018-10-09T12:16:17.661Z,12.33
2018-10-09T12:18:44.839Z,13.10
2018-10-09T12:21:12.031Z,14.27
2018-10-09T12:23:39.461Z,12.93
2018-10-09T12:26:06.966Z,13.90
2018-10-09T12:28:35.225Z,13.77
2018-10-09T12:31:02.511Z,12.53
2018-10-09T12:33:29.784Z,13.37
2018-10-09T12:35:57.056Z,14.20
2018-10-09T12:38:24.309Z,13.00
2018-10-09T12:40:51.471Z,13.37
2018-10-09T12:43:18.761Z,12.60
2018-10-09T12:45:45.985Z,13.63
2018-10-09T12:48:13.251Z,12.90
2018-10-09T12:50:40.506Z,14.20
2018-10-09T12:53:07.818Z,12.60
2018-10-09T12:55:35.006Z,13.80
2018-10-09T12:58:02.893Z,14.77
2018-10-09T13:00:30.285Z,13.70
2018-10-09T13:02:57.562Z,13.37
2018-10-09T13:05:24.814Z,13.73
2018-10-09T13:07:52.040Z,12.53
2018-10-09T13:10:19.280Z,13.07
2018-10-09T13:12:46.526Z,14.03
2018-10-09T13:15:13.777Z,13.37
2018-10-09T13:17:41.012Z,14.00
2018-10-09T13:20:08.412Z,13.60
2018-10-09T13:22:53.024Z,13.17
2018-10-09T13:25:20.167Z,14.03
2018-10-09T13:27:47.373Z,15.20
2018-10-09T13:30:14.671Z,14.80
2018-10-09T13:32:42.052Z,14.40
2018-10-09T13:35:09.232Z,13.97
2018-10-09T13:37:36.504Z,14.23
2018-10-09T13:40:03.845Z,14.83
2018-10-09T13:42:31.038Z,13.73
2018-10-09T13:44:58.285Z,13.60
2018-10-09T13:47:25.632Z,13.07
2018-10-09T13:49:52.674Z,14.73
2018-10-09T13:52:19.973Z,13.40
2018-10-09T13:54:47.301Z,13.97
2018-10-09T13:57:14.811Z,13.57
2018-10-09T13:59:42.077Z,13.07
2018-10-09T14:02:09.291Z,14.20
2018-10-09T14:04:36.453Z,13.67
2018-10-09T14:07:03.680Z,14.87
2018-10-09T14:09:30.837Z,13.67
2018-10-09T14:11:58.044Z,14.00
2018-10-09T14:14:25.305Z,13.50
2018-10-09T14:16:52.589Z,15.17
2018-10-09T14:19:19.872Z,14.33
2018-10-09T14:21:47.093Z,15.00
2018-10-09T14:24:14.341Z,14.80
2018-10-09T14:26:42.348Z,14.00
2018-10-09T14:29:09.645Z,14.57
2018-10-09T14:31:36.848Z,14.30
2018-10-09T14:34:04.117Z,13.80
2018-10-09T14:36:31.326Z,13.30
2018-10-09T14:38:58.563Z,12.30
2018-10-09T14:41:26.740Z,13.13
2018-10-09T14:43:54.052Z,12.10
2018-10-09T14:46:21.205Z,14.10
2018-10-09T14:48:48.408Z,13.70
2018-10-09T14:51:15.594Z,12.67
2018-10-09T14:53:42.851Z,12.97
2018-10-09T14:56:10.033Z,13.47
2018-10-09T14:58:37.214Z,13.03
2018-10-09T15:01:04.510Z,11.93
2018-10-09T15:03:31.806Z,13.03
2018-10-09T15:05:58.952Z,13.07
2018-10-09T15:08:26.148Z,12.87
2018-10-09T15:10:53.333Z,13.53
2018-10-09T15:13:20.601Z,13.80
2018-10-09T15:15:47.848Z,11.50
2018-10-09T15:18:15.085Z,12.30
2018-10-09T15:20:42.308Z,14.07
2018-10-09T15:23:09.647Z,11.10
2018-10-09T15:25:36.877Z,12.20
2018-10-09T15:28:04.273Z,12.40
2018-10-09T15:30:32.202Z,14.17
2018-10-09T15:32:59.633Z,14.30
2018-10-09T15:35:26.906Z,12.47
2018-10-09T15:37:54.117Z,12.70
2018-10-09T15:40:21.363Z,12.10
2018-10-09T15:42:48.596Z,13.53
2018-10-09T15:45:16.319Z,13.60
2018-10-09T15:47:43.565Z,14.27
2018-10-09T15:50:10.786Z,14.23
2018-10-09T15:52:38.136Z,13.93
2018-10-09T15:55:05.376Z,13.57
2018-10-09T15:57:32.602Z,13.30
2018-10-09T15:59:59.809Z,13.03
2018-10-09T16:02:26.981Z,12.50
2018-10-09T16:04:54.268Z,13.60
2018-10-09T16:07:22.369Z,13.20
2018-10-09T16:09:49.582Z,13.10
2018-10-09T16:12:16.840Z,11.80
2018-10-09T16:14:44.092Z,12.47
2018-10-09T16:17:11.264Z,13.20
2018-10-09T16:19:38.661Z,12.93
2018-10-09T16:22:06.006Z,13.40
2018-10-09T16:24:33.229Z,11.80
2018-10-09T16:27:00.456Z,12.67
2018-10-09T16:29:27.617Z,11.10
2018-10-09T16:31:54.797Z,11.93
2018-10-09T16:34:22.057Z,11.23
2018-10-09T16:36:49.353Z,11.83
2018-10-09T16:39:16.785Z,11.23
2018-10-09T16:41:44.105Z,11.40
2018-10-09T16:44:11.839Z,11.73
2018-10-09T16:46:39.393Z,11.80
2018-10-09T16:49:06.627Z,11.77
2018-10-09T16:51:33.864Z,12.30
2018-10-09T16:54:01.041Z,12.47
2018-10-09T16:56:28.249Z,11.70
2018-10-09T16:58:56.634Z,11.27
2018-10-09T17:01:24.888Z,12.80
2018-10-09T17:03:52.140Z,11.20
2018-10-09T17:06:19.317Z,11.43
2018-10-09T17:08:46.452Z,11.03
2018-10-09T17:11:13.625Z,12.17
2018-10-09T17:13:40.877Z,11.88
2018-10-09T17:16:08.145Z,11.33
2018-10-09T17:18:35.407Z,12.67
2018-10-09T17:21:02.647Z,12.80
2018-10-09T17:23:29.861Z,11.30
2018-10-09T17:25:57.098Z,11.20
2018-10-09T17:28:24.370Z,11.80
2018-10-09T17:30:51.510Z,11.60
2018-10-09T17:33:18.856Z,10.27
2018-10-09T17:35:46.014Z,11.10
2018-10-09T17:38:13.804Z,10.90
2018-10-09T17:40:41.016Z,12.63
2018-10-09T17:43:08.308Z,11.10
2018-10-09T17:45:35.499Z,11.53
2018-10-09T17:48:02.676Z,11.30
2018-10-09T17:50:29.884Z,11.77
2018-10-09T17:52:57.038Z,10.83
2018-10-09T17:55:24.265Z,13.20
2018-10-09T17:57:51.546Z,13.03
2018-10-09T18:00:18.849Z,13.83
2018-10-09T18:02:46.150Z,14.93
2018-10-09T18:05:13.342Z,14.30
2018-10-09T18:07:40.544Z,14.10
2018-10-09T18:10:07.809Z,13.40
2018-10-09T18:12:35.053Z,13.40
2018-10-09T18:15:02.335Z,12.83
2018-10-09T18:17:29.404Z,12.67
2018-10-09T18:19:56.944Z,15.10
2018-10-09T18:22:24.193Z,13.23
2018-10-09T18:24:51.357Z,13.17
2018-10-09T18:27:18.550Z,12.07
2018-10-09T18:29:45.694Z,11.93
2018-10-09T18:32:12.907Z,12.57
2018-10-09T18:34:40.097Z,11.40
2018-10-09T18:37:07.284Z,10.30
2018-10-09T18:39:34.493Z,11.33
2018-10-09T18:42:03.955Z,10.47
2018-10-09T18:44:31.319Z,11.43
2018-10-09T18:46:58.526Z,10.47
2018-10-09T18:49:25.772Z,10.17
2018-10-09T18:51:53.059Z,11.17
2018-10-09T18:54:20.250Z,10.93
2018-10-09T18:56:47.472Z,10.57
2018-10-09T18:59:14.697Z,10.70
2018-10-09T19:01:41.913Z,9.80
2018-10-09T19:04:09.115Z,10.97
2018-10-09T19:06:36.297Z,11.00
2018-10-09T19:09:07.018Z,10.57
2018-10-09T19:11:34.201Z,10.20
2018-10-09T19:14:01.454Z,11.13
2018-10-09T19:16:28.618Z,10.97
2018-10-09T19:18:55.805Z,11.00
2018-10-09T19:21:23.662Z,10.83
2018-10-09T19:23:51.043Z,11.17
2018-10-09T19:26:18.739Z,10.90
2018-10-09T19:28:45.927Z,11.00
2018-10-09T19:31:13.164Z,11.10
2018-10-09T19:33:40.409Z,11.47
2018-10-09T19:36:07.649Z,10.57
2018-10-09T19:38:34.893Z,10.70
2018-10-09T19:41:02.039Z,10.20
2018-10-09T19:43:30.501Z,10.70
2018-10-09T19:45:57.730Z,27.50
2018-10-09T19:48:25.013Z,34.40
2018-10-09T19:50:54.711Z,18.67
2018-10-09T19:53:21.929Z,10.50
2018-10-09T19:55:49.131Z,10.27
2018-10-09T19:58:16.345Z,10.27
2018-10-09T20:00:43.638Z,10.70
2018-10-09T20:03:10.932Z,10.17
2018-10-09T20:05:38.177Z,9.87
2018-10-09T20:08:05.602Z,10.27
2018-10-09T20:10:32.760Z,11.47
2018-10-09T20:13:00.030Z,11.00
2018-10-09T20:15:29.901Z,10.50
2018-10-09T20:17:57.157Z,9.80
2018-10-09T20:20:24.372Z,10.30
2018-10-09T20:22:51.509Z,10.30
2018-10-09T20:25:18.694Z,10.30
2018-10-09T20:27:45.912Z,9.60
2018-10-09T20:30:13.049Z,9.43
2018-10-09T20:32:40.297Z,10.43
2018-10-09T20:35:07.667Z,9.60
2018-10-09T20:37:34.912Z,10.37
2018-10-09T20:40:02.161Z,10.43
2018-10-09T20:42:29.416Z,10.30
2018-10-09T20:44:57.137Z,10.20
2018-10-09T20:47:30.119Z,10.30
2018-10-09T20:49:57.416Z,10.17
2018-10-09T20:52:24.669Z,10.00
2018-10-09T20:54:52.233Z,10.60
2018-10-09T20:57:19.478Z,10.83
2018-10-09T20:59:46.666Z,10.37
2018-10-09T21:02:13.837Z,10.67
2018-10-09T21:04:41.105Z,9.77
2018-10-09T21:07:08.336Z,9.00
2018-10-09T21:09:35.557Z,9.10
2018-10-09T21:12:02.769Z,8.97
2018-10-09T21:14:29.917Z,8.50
2018-10-09T21:16:57.839Z,8.50
2018-10-09T21:19:25.262Z,8.70
2018-10-09T21:21:52.597Z,8.67
2018-10-09T21:24:19.773Z,8.40
2018-10-09T21:26:47.030Z,8.90
2018-10-09T21:29:14.238Z,7.00
2018-10-09T21:31:41.391Z,8.60
2018-10-09T21:34:08.643Z,8.50
2018-10-09T21:36:36.900Z,9.33
2018-10-09T21:39:06.020Z,8.23
2018-10-09T21:41:33.239Z,12.00
2018-10-09T21:44:00.421Z,10.73
2018-10-09T21:46:27.650Z,11.43
2018-10-09T21:48:54.790Z,11.00
2018-10-09T21:51:22.110Z,12.23
2018-10-09T21:53:49.388Z,9.63
2018-10-09T21:56:16.561Z,7.97
2018-10-09T21:58:43.753Z,7.60
2018-10-09T22:01:11.952Z,6.90
2018-10-09T22:03:39.876Z,7.30
2018-10-09T22:06:07.454Z,7.70
2018-10-09T22:08:34.869Z,7.13
2018-10-09T22:11:02.036Z,7.13
2018-10-09T22:13:29.399Z,6.57
2018-10-09T22:15:56.628Z,6.80
2018-10-09T22:18:24.014Z,7.43
2018-10-09T22:20:51.405Z,7.17
2018-10-09T22:23:18.609Z,7.20
2018-10-09T22:25:46.130Z,6.40
2018-10-09T22:28:13.322Z,7.60
2018-10-09T22:30:40.540Z,6.50
2018-10-09T22:33:08.410Z,6.67
2018-10-09T22:35:35.659Z,6.30
2018-10-09T22:38:02.887Z,6.43
2018-10-09T22:40:30.083Z,7.17
2018-10-09T22:42:57.309Z,6.47
2018-10-09T22:45:24.560Z,7.00
2018-10-09T22:47:51.785Z,7.00
2018-10-09T22:50:19.648Z,6.57
2018-10-09T22:52:46.825Z,6.33
2018-10-09T22:55:14.039Z,7.70
2018-10-09T22:57:41.253Z,7.00
2018-10-09T23:00:08.705Z,6.07
2018-10-09T23:02:35.956Z,7.30
2018-10-09T23:05:03.209Z,6.90
2018-10-09T23:07:30.457Z,6.50
2018-10-09T23:09:57.756Z,7.10
2018-10-09T23:12:24.930Z,6.50
2018-10-09T23:14:52.109Z,7.23
2018-10-09T23:17:19.316Z,17.20
2018-10-09T23:19:46.517Z,10.20
2018-10-09T23:22:13.689Z,12.30
2018-10-09T23:24:40.941Z,7.80
2018-10-09T23:27:08.321Z,6.87
2018-10-09T23:29:35.567Z,7.93
2018-10-09T23:32:02.946Z,7.90
2018-10-09T23:34:30.157Z,8.07
2018-10-09T23:36:57.453Z,5.90
2018-10-09T23:39:24.784Z,6.60
2018-10-09T23:41:52.056Z,6.20
2018-10-09T23:44:19.293Z,6.80
2018-10-09T23:46:46.485Z,6.23
2018-10-09T23:49:13.700Z,6.93
2018-10-09T23:51:40.892Z,6.40
2018-10-09T23:54:08.145Z,6.73
2018-10-09T23:56:35.371Z,6.37
2018-10-09T23:59:02.608Z,7.77
